createdAt,value
2023-05-24T00:01:48.504Z,8.22
2023-05-24T00:04:15.172Z,8.17
2023-05-24T00:06:42.589Z,8.15
2023-05-24T00:09:09.077Z,8.11
2023-05-24T00:11:35.628Z,8.10
2023-05-24T00:14:02.132Z,8.05
2023-05-24T00:16:28.701Z,8.03
2023-05-24T00:18:55.170Z,7.96
2023-05-24T00:21:21.659Z,7.89
2023-05-24T00:23:48.283Z,7.79
2023-05-24T00:26:14.744Z,7.80
2023-05-24T00:28:41.300Z,7.77
2023-05-24T00:31:08.470Z,7.78
2023-05-24T00:33:35.016Z,7.77
2023-05-24T00:36:01.575Z,7.74
2023-05-24T00:38:28.357Z,7.70
2023-05-24T00:40:59.756Z,7.68
2023-05-24T00:43:26.534Z,7.65
2023-05-24T00:46:26.921Z,7.57
2023-05-24T00:48:53.967Z,7.54
2023-05-24T00:51:20.912Z,7.47
2023-05-24T00:53:49.015Z,7.40
2023-05-24T00:56:16.781Z,7.35
2023-05-24T00:58:43.772Z,7.32
2023-05-24T01:01:10.758Z,7.30
2023-05-24T01:03:37.841Z,7.22
2023-05-24T01:06:07.246Z,7.14
2023-05-24T01:08:42.776Z,7.14
2023-05-24T01:11:41.997Z,7.14
2023-05-24T01:14:38.276Z,7.09
2023-05-24T01:17:26.597Z,7.07
2023-05-24T01:19:59.942Z,7.04
2023-05-24T01:23:01.803Z,6.99
2023-05-24T01:25:41.683Z,6.96
2023-05-24T01:28:10.696Z,6.96
2023-05-24T01:30:38.217Z,6.91
2023-05-24T01:33:05.116Z,6.88
2023-05-24T01:35:31.619Z,6.78
2023-05-24T01:37:58.063Z,6.68
2023-05-24T01:40:24.612Z,6.65
2023-05-24T01:43:03.204Z,6.70
2023-05-24T01:45:40.031Z,6.63
2023-05-24T01:48:19.130Z,6.57
2023-05-24T01:50:48.589Z,6.60
2023-05-24T01:53:19.614Z,6.60
2023-05-24T01:55:49.008Z,6.56
2023-05-24T01:58:16.612Z,6.58
2023-05-24T02:00:45.203Z,6.56
2023-05-24T02:03:15.041Z,6.49
2023-05-24T02:05:41.784Z,6.49
2023-05-24T02:08:08.920Z,6.50
2023-05-24T02:10:38.356Z,6.47
2023-05-24T02:13:06.094Z,6.41
2023-05-24T02:15:32.949Z,6.39
2023-05-24T02:18:01.515Z,6.37
2023-05-24T02:20:32.050Z,6.31
2023-05-24T02:22:58.678Z,6.28
2023-05-24T02:25:25.575Z,6.23
2023-05-24T02:27:52.173Z,6.17
2023-05-24T02:30:18.940Z,6.04
2023-05-24T02:32:46.518Z,5.99
2023-05-24T02:35:13.240Z,6.00
2023-05-24T02:37:39.835Z,5.98
2023-05-24T02:40:07.094Z,5.92
2023-05-24T02:42:33.592Z,5.89
2023-05-24T02:45:00.305Z,5.83
2023-05-24T02:47:27.136Z,5.77
2023-05-24T02:49:54.407Z,5.71
2023-05-24T02:52:22.838Z,5.58
2023-05-24T02:54:50.400Z,5.63
2023-05-24T02:57:16.978Z,5.69
2023-05-24T02:59:43.785Z,5.67
2023-05-24T03:02:13.624Z,5.71
2023-05-24T03:04:40.289Z,5.64
2023-05-24T03:07:06.786Z,5.51
2023-05-24T03:09:33.501Z,5.43
2023-05-24T03:11:59.986Z,5.32
2023-05-24T03:14:26.478Z,5.23
2023-05-24T03:16:52.951Z,5.26
2023-05-24T03:19:19.443Z,5.21
2023-05-24T03:21:46.025Z,5.27
2023-05-24T03:24:13.236Z,5.33
2023-05-24T03:26:40.826Z,5.36
2023-05-24T03:29:07.425Z,5.40
2023-05-24T03:31:34.077Z,5.36
2023-05-24T03:34:00.671Z,5.36
2023-05-24T03:36:28.950Z,5.41
2023-05-24T03:38:58.128Z,5.49
2023-05-24T03:41:25.103Z,5.55
2023-05-24T03:43:52.318Z,5.55
2023-05-24T03:46:19.150Z,5.51
2023-05-24T03:48:45.784Z,5.52
2023-05-24T03:51:12.329Z,5.54
2023-05-24T03:53:39.042Z,5.51
2023-05-24T03:56:05.955Z,5.55
2023-05-24T03:58:32.518Z,5.58
2023-05-24T04:00:59.049Z,5.66
2023-05-24T04:03:26.176Z,5.72
2023-05-24T04:05:53.927Z,5.75
2023-05-24T04:08:20.646Z,5.82
2023-05-24T04:10:47.212Z,5.86
2023-05-24T04:13:13.884Z,5.89
2023-05-24T04:15:40.658Z,5.92
2023-05-24T04:18:07.420Z,6.00
2023-05-24T04:20:34.100Z,6.02
2023-05-24T04:23:00.670Z,5.91
2023-05-24T04:25:27.601Z,5.78
2023-05-24T04:27:54.343Z,5.83
2023-05-24T04:30:21.419Z,5.87
2023-05-24T04:32:48.692Z,5.92
2023-05-24T04:35:16.810Z,6.01
2023-05-24T04:37:44.469Z,6.12
2023-05-24T04:40:11.663Z,6.20
2023-05-24T04:42:38.435Z,6.30
2023-05-24T04:45:05.600Z,6.41
2023-05-24T04:47:32.223Z,6.46
2023-05-24T04:49:58.834Z,6.50
2023-05-24T04:52:25.391Z,6.43
2023-05-24T04:54:51.976Z,6.43
2023-05-24T04:57:18.481Z,6.33
2023-05-24T04:59:45.041Z,6.30
2023-05-24T05:02:11.678Z,6.30
2023-05-24T05:04:38.378Z,6.30
2023-05-24T05:07:05.120Z,6.36
2023-05-24T05:09:31.674Z,6.47
2023-05-24T05:11:58.527Z,6.52
2023-05-24T05:14:25.130Z,6.46
2023-05-24T05:16:51.707Z,6.41
2023-05-24T05:19:18.281Z,6.47
2023-05-24T05:21:44.783Z,6.51
2023-05-24T05:24:11.467Z,6.64
2023-05-24T05:26:38.065Z,6.64
2023-05-24T05:29:04.576Z,6.58
2023-05-24T05:31:31.257Z,6.67
2023-05-24T05:33:57.849Z,6.69
2023-05-24T05:36:24.469Z,6.76
2023-05-24T05:38:51.055Z,6.73
2023-05-24T05:41:17.828Z,6.75
2023-05-24T05:43:44.469Z,6.75
2023-05-24T05:46:11.432Z,6.86
2023-05-24T05:48:38.036Z,7.00
2023-05-24T05:51:04.557Z,7.05
2023-05-24T05:53:33.975Z,7.20
2023-05-24T05:56:00.504Z,7.36
2023-05-24T05:58:27.029Z,7.52
2023-05-24T06:00:53.598Z,7.56
2023-05-24T06:03:20.365Z,7.67
2023-05-24T06:05:47.111Z,7.65
2023-05-24T06:08:13.640Z,7.68
2023-05-24T06:10:40.331Z,7.74
2023-05-24T06:13:07.632Z,7.86
2023-05-24T06:15:34.503Z,7.91
2023-05-24T06:18:02.319Z,8.05
2023-05-24T06:20:29.223Z,8.15
2023-05-24T06:22:57.194Z,8.21
2023-05-24T06:25:24.475Z,8.42
2023-05-24T06:27:54.099Z,8.52
2023-05-24T06:30:20.653Z,8.58
2023-05-24T06:32:47.317Z,8.69
2023-05-24T06:35:14.178Z,8.85
2023-05-24T06:37:40.823Z,8.85
2023-05-24T06:40:09.571Z,8.96
2023-05-24T06:42:37.113Z,9.11
2023-05-24T06:45:04.067Z,9.26
2023-05-24T06:47:30.807Z,9.38
2023-05-24T06:49:57.613Z,9.52
2023-05-24T06:52:24.185Z,9.64
2023-05-24T06:54:50.769Z,9.84
2023-05-24T06:57:17.327Z,9.86
2023-05-24T06:59:43.892Z,9.99
2023-05-24T07:02:10.666Z,10.10
2023-05-24T07:04:37.259Z,10.30
2023-05-24T07:07:04.062Z,10.42
2023-05-24T07:09:30.652Z,10.56
2023-05-24T07:11:57.170Z,10.69
2023-05-24T07:14:25.878Z,10.75
2023-05-24T07:16:52.844Z,10.79
2023-05-24T07:19:21.428Z,10.81
2023-05-24T07:21:48.147Z,10.86
2023-05-24T07:24:16.201Z,10.98
2023-05-24T07:26:43.220Z,11.08
2023-05-24T07:29:09.805Z,11.07
2023-05-24T07:31:36.896Z,11.12
2023-05-24T07:34:03.505Z,11.16
2023-05-24T07:36:34.789Z,11.14
2023-05-24T07:39:02.247Z,11.22
2023-05-24T07:41:29.345Z,11.35
2023-05-24T07:43:56.113Z,11.20
2023-05-24T07:46:23.002Z,11.31
2023-05-24T07:48:49.785Z,11.45
2023-05-24T07:51:16.296Z,11.60
2023-05-24T07:53:42.914Z,11.64
2023-05-24T07:56:09.893Z,11.71
2023-05-24T07:58:36.448Z,11.75
2023-05-24T08:01:03.215Z,11.85
2023-05-24T08:03:29.938Z,11.91
2023-05-24T08:05:57.105Z,11.95
2023-05-24T08:08:24.415Z,11.99
2023-05-24T08:10:50.945Z,11.99
2023-05-24T08:13:17.520Z,11.99
2023-05-24T08:15:44.285Z,12.03
2023-05-24T08:18:11.069Z,12.09
2023-05-24T08:20:38.786Z,12.12
2023-05-24T08:23:05.585Z,12.11
2023-05-24T08:25:32.962Z,11.88
2023-05-24T08:27:59.527Z,11.78
2023-05-24T08:30:26.060Z,11.78
2023-05-24T08:32:53.248Z,11.77
2023-05-24T08:35:21.529Z,11.81
2023-05-24T08:37:49.189Z,11.88
2023-05-24T08:40:16.333Z,11.98
2023-05-24T08:42:43.146Z,12.02
2023-05-24T08:45:12.461Z,12.21
2023-05-24T08:47:39.683Z,12.21
2023-05-24T08:50:07.395Z,12.30
2023-05-24T08:52:34.862Z,12.48
2023-05-24T08:55:02.964Z,12.56
2023-05-24T08:57:32.520Z,12.57
2023-05-24T08:59:59.273Z,12.60
2023-05-24T09:02:26.876Z,12.64
2023-05-24T09:04:53.913Z,12.69
2023-05-24T09:07:24.719Z,12.57
2023-05-24T09:10:11.641Z,12.69
2023-05-24T09:12:39.776Z,12.82
2023-05-24T09:15:08.210Z,12.88
2023-05-24T09:17:37.021Z,12.96
2023-05-24T09:20:07.101Z,13.10
2023-05-24T09:22:36.222Z,13.21
2023-05-24T09:25:06.051Z,13.31
2023-05-24T09:27:37.724Z,13.32
2023-05-24T09:30:09.250Z,13.40
2023-05-24T09:32:35.874Z,13.42
2023-05-24T09:35:02.678Z,13.53
2023-05-24T09:37:32.737Z,13.57
2023-05-24T09:40:00.271Z,13.69
2023-05-24T09:42:28.743Z,13.85
2023-05-24T09:45:08.570Z,13.78
2023-05-24T09:47:40.366Z,13.85
2023-05-24T09:50:13.280Z,13.87
2023-05-24T09:52:41.149Z,13.85
2023-05-24T09:55:18.523Z,13.81
2023-05-24T09:57:49.868Z,13.77
2023-05-24T10:00:23.220Z,13.62
2023-05-24T10:03:09.197Z,13.56
2023-05-24T10:05:36.476Z,13.46
2023-05-24T10:08:06.845Z,13.33
2023-05-24T10:10:34.000Z,13.24
2023-05-24T10:13:01.741Z,13.15
2023-05-24T10:15:29.652Z,13.07
2023-05-24T10:17:57.577Z,13.01
2023-05-24T10:20:24.849Z,12.98
2023-05-24T10:22:59.255Z,12.86
2023-05-24T10:25:28.511Z,12.97
2023-05-24T10:28:01.571Z,13.03
2023-05-24T10:30:34.247Z,13.15
2023-05-24T10:33:02.720Z,13.20
2023-05-24T10:35:30.856Z,13.39
2023-05-24T10:37:57.541Z,13.51
2023-05-24T10:40:26.890Z,13.46
2023-05-24T10:42:56.604Z,13.61
2023-05-24T10:45:23.055Z,13.65
2023-05-24T10:47:49.668Z,13.66
2023-05-24T10:50:20.755Z,13.57
2023-05-24T10:52:49.569Z,13.55
2023-05-24T10:55:19.161Z,13.58
2023-05-24T10:57:45.798Z,13.65
2023-05-24T11:03:02.298Z,13.82
2023-05-24T11:05:36.697Z,13.87
2023-05-24T11:08:06.704Z,13.89
2023-05-24T11:10:33.414Z,13.99
2023-05-24T11:13:02.065Z,13.92
2023-05-24T11:15:29.788Z,13.96
2023-05-24T11:18:14.789Z,14.10
2023-05-24T11:20:48.063Z,14.17
2023-05-24T11:23:16.169Z,14.14
2023-05-24T11:25:43.228Z,14.16
2023-05-24T11:28:11.206Z,14.31
2023-05-24T11:30:42.368Z,14.31
2023-05-24T11:33:20.003Z,14.38
2023-05-24T11:35:47.284Z,14.44
2023-05-24T11:38:17.378Z,14.36
2023-05-24T11:40:45.523Z,14.35
2023-05-24T11:43:17.055Z,14.31
2023-05-24T11:45:50.062Z,14.30
2023-05-24T11:48:18.816Z,14.24
2023-05-24T11:50:52.384Z,14.20
2023-05-24T11:53:23.200Z,14.13
2023-05-24T11:55:49.853Z,14.13
2023-05-24T11:58:32.349Z,14.04
2023-05-24T12:00:59.088Z,14.05
2023-05-24T12:03:26.088Z,14.06
2023-05-24T12:05:57.008Z,14.04
2023-05-24T12:08:23.646Z,14.17
2023-05-24T12:10:51.722Z,14.21
2023-05-24T12:13:23.384Z,14.36
2023-05-24T12:15:54.985Z,14.40
2023-05-24T12:18:24.182Z,14.46
2023-05-24T12:20:51.597Z,14.59
2023-05-24T12:23:24.131Z,14.73
2023-05-24T12:25:50.932Z,14.86
2023-05-24T12:28:21.853Z,15.00
2023-05-24T12:30:49.904Z,15.21
2023-05-24T12:33:19.153Z,15.40
2023-05-24T12:35:47.244Z,15.45
2023-05-24T12:38:13.763Z,15.50
2023-05-24T12:40:44.016Z,15.50
2023-05-24T12:43:14.806Z,15.52
2023-05-24T12:45:41.376Z,15.44
2023-05-24T12:48:08.815Z,15.70
2023-05-24T12:50:35.642Z,16.16
2023-05-24T12:53:02.214Z,16.71
2023-05-24T12:55:29.183Z,17.43
2023-05-24T12:57:56.417Z,17.95
2023-05-24T13:00:27.289Z,18.20
2023-05-24T13:02:56.761Z,18.44
2023-05-24T13:05:24.279Z,18.36
2023-05-24T13:07:52.259Z,18.27
2023-05-24T13:10:22.219Z,18.13
2023-05-24T13:12:49.033Z,18.05
2023-05-24T13:15:15.565Z,17.84
2023-05-24T13:17:42.702Z,17.85
2023-05-24T13:20:11.273Z,17.96
2023-05-24T13:22:39.685Z,18.03
2023-05-24T13:25:07.737Z,18.01
2023-05-24T13:27:34.990Z,18.08
2023-05-24T13:30:02.060Z,18.01
2023-05-24T13:32:28.790Z,17.86
2023-05-24T13:34:55.390Z,17.56
2023-05-24T13:37:22.209Z,17.25
2023-05-24T13:39:49.573Z,17.16
2023-05-24T13:42:16.268Z,16.99
2023-05-24T13:44:43.253Z,16.69
2023-05-24T13:47:09.994Z,16.53
2023-05-24T13:49:37.835Z,16.39
2023-05-24T13:52:04.620Z,16.26
2023-05-24T13:54:32.165Z,16.27
2023-05-24T13:56:59.534Z,16.25
2023-05-24T13:59:27.124Z,16.12
2023-05-24T14:01:54.068Z,16.03
2023-05-24T14:04:20.739Z,15.92
2023-05-24T14:06:47.229Z,15.96
2023-05-24T14:09:15.235Z,16.11
2023-05-24T14:11:42.049Z,16.32
2023-05-24T14:16:38.040Z,16.44
2023-05-24T14:19:04.736Z,16.39
2023-05-24T14:21:32.361Z,16.45
2023-05-24T14:23:58.943Z,16.52
2023-05-24T14:26:25.558Z,16.44
2023-05-24T14:28:55.323Z,16.32
2023-05-24T14:31:22.219Z,16.24
2023-05-24T14:33:49.093Z,16.16
2023-05-24T14:36:15.829Z,16.11
2023-05-24T14:38:42.367Z,16.11
2023-05-24T14:41:10.021Z,16.07
2023-05-24T14:43:37.665Z,15.96
2023-05-24T14:46:04.481Z,15.89
2023-05-24T14:48:31.072Z,15.85
2023-05-24T14:50:57.595Z,15.71
2023-05-24T14:53:24.377Z,15.62
2023-05-24T14:55:50.918Z,15.55
2023-05-24T14:58:17.681Z,15.52
2023-05-24T15:00:45.121Z,15.52
2023-05-24T15:03:14.449Z,15.63
2023-05-24T15:05:42.793Z,15.89
2023-05-24T15:08:11.214Z,16.25
2023-05-24T15:10:39.237Z,16.63
2023-05-24T15:13:05.836Z,16.88
2023-05-24T15:15:32.385Z,17.03
2023-05-24T15:18:00.171Z,17.20
2023-05-24T15:20:27.103Z,17.29
2023-05-24T15:22:53.871Z,17.43
2023-05-24T15:25:20.904Z,17.38
2023-05-24T15:27:47.617Z,17.31
2023-05-24T15:30:14.377Z,17.33
2023-05-24T15:32:41.227Z,17.49
2023-05-24T15:35:08.210Z,17.57
2023-05-24T15:37:34.718Z,17.76
2023-05-24T15:40:01.278Z,17.80
2023-05-24T15:42:30.477Z,17.68
2023-05-24T15:44:57.025Z,17.71
2023-05-24T15:47:27.877Z,17.57
2023-05-24T15:49:54.570Z,17.44
2023-05-24T15:52:21.126Z,17.36
2023-05-24T15:54:47.739Z,17.25
2023-05-24T15:57:14.230Z,16.99
2023-05-24T15:59:40.810Z,16.88
2023-05-24T16:02:08.324Z,16.70
2023-05-24T16:04:35.077Z,16.64
2023-05-24T16:07:01.641Z,16.54
2023-05-24T16:09:28.231Z,16.46
2023-05-24T16:11:54.761Z,16.41
2023-05-24T16:14:21.486Z,16.26
2023-05-24T16:16:48.066Z,16.21
2023-05-24T16:19:14.714Z,16.23
2023-05-24T16:21:41.396Z,16.24
2023-05-24T16:24:09.174Z,16.14
2023-05-24T16:26:35.969Z,16.26
2023-05-24T16:29:02.614Z,16.32
2023-05-24T16:33:58.850Z,16.45
2023-05-24T16:36:26.846Z,16.64
2023-05-24T16:38:53.598Z,16.74
2023-05-24T16:41:20.235Z,16.82
2023-05-24T16:43:46.806Z,16.95
2023-05-24T16:46:13.413Z,17.02
2023-05-24T16:48:40.179Z,17.04
2023-05-24T16:51:06.754Z,17.05
2023-05-24T16:53:33.351Z,17.08
2023-05-24T16:55:59.902Z,17.03
2023-05-24T16:58:30.909Z,16.86
2023-05-24T17:00:58.538Z,16.65
2023-05-24T17:03:28.911Z,16.53
2023-05-24T17:05:58.878Z,16.40
2023-05-24T17:08:27.854Z,16.35
2023-05-24T17:10:58.667Z,16.20
2023-05-24T17:13:29.173Z,16.12
2023-05-24T17:15:57.082Z,16.03
2023-05-24T17:18:29.008Z,15.94
2023-05-24T17:21:01.366Z,15.83
2023-05-24T17:23:30.898Z,15.79
2023-05-24T17:25:58.067Z,15.72
2023-05-24T17:28:29.007Z,15.65
2023-05-24T17:31:00.915Z,15.55
2023-05-24T17:33:29.059Z,15.52
2023-05-24T17:35:56.871Z,15.51
2023-05-24T17:38:26.371Z,15.46
2023-05-24T17:40:58.977Z,15.44
2023-05-24T17:43:29.306Z,15.40
2023-05-24T17:46:03.225Z,15.35
2023-05-24T17:48:31.745Z,15.31
2023-05-24T17:51:00.844Z,15.26
2023-05-24T17:53:34.896Z,15.15
2023-05-24T17:56:02.145Z,15.13
2023-05-24T17:58:30.887Z,15.11
2023-05-24T18:00:57.503Z,15.12
2023-05-24T18:03:24.233Z,15.10
2023-05-24T18:05:50.836Z,15.06
2023-05-24T18:08:17.404Z,15.09
2023-05-24T18:10:43.907Z,15.05
2023-05-24T18:13:10.634Z,15.07
2023-05-24T18:15:37.267Z,15.05
2023-05-24T18:18:04.116Z,15.03
2023-05-24T18:20:30.791Z,15.02
2023-05-24T18:22:57.354Z,15.01
2023-05-24T18:25:23.916Z,15.02
2023-05-24T18:27:50.545Z,14.99
2023-05-24T18:30:17.266Z,14.99
2023-05-24T18:32:55.962Z,14.93
2023-05-24T18:35:29.388Z,14.93
2023-05-24T18:37:56.218Z,14.87
2023-05-24T18:40:23.558Z,14.84
2023-05-24T18:42:53.040Z,14.83
2023-05-24T18:45:19.612Z,14.72
2023-05-24T18:47:46.181Z,14.71
2023-05-24T18:50:12.872Z,14.67
2023-05-24T18:52:39.530Z,14.62
2023-05-24T18:55:10.521Z,14.61
2023-05-24T18:57:37.787Z,14.58
2023-05-24T19:00:05.956Z,14.57
2023-05-24T19:02:38.363Z,14.51
2023-05-24T19:05:06.300Z,14.48
2023-05-24T19:07:33.953Z,14.44
2023-05-24T19:10:00.469Z,14.40
2023-05-24T19:12:27.052Z,14.35
2023-05-24T19:14:53.617Z,14.30
2023-05-24T19:17:20.140Z,14.17
2023-05-24T19:19:46.628Z,14.15
2023-05-24T19:22:13.145Z,14.06
2023-05-24T19:24:39.686Z,13.91
2023-05-24T19:27:07.033Z,13.83
2023-05-24T19:29:34.544Z,13.71
2023-05-24T19:32:01.152Z,13.64
2023-05-24T19:34:28.719Z,13.53
2023-05-24T19:36:55.260Z,13.42
2023-05-24T19:39:21.878Z,13.34
2023-05-24T19:41:48.385Z,13.28
2023-05-24T19:44:14.924Z,13.17
2023-05-24T19:46:41.488Z,13.09
2023-05-24T19:49:08.057Z,13.03
2023-05-24T19:51:34.939Z,12.93
2023-05-24T19:54:01.508Z,12.80
2023-05-24T19:56:28.140Z,12.76
2023-05-24T19:58:54.634Z,12.69
2023-05-24T20:01:21.331Z,12.58
2023-05-24T20:03:48.669Z,12.50
2023-05-24T20:06:16.561Z,12.40
2023-05-24T20:08:43.530Z,12.31
2023-05-24T20:11:10.426Z,12.23
2023-05-24T20:13:36.922Z,12.18
2023-05-24T20:16:03.576Z,12.06
2023-05-24T20:18:30.186Z,12.00
2023-05-24T20:20:57.487Z,11.95
2023-05-24T20:23:27.420Z,11.92
2023-05-24T20:25:57.247Z,11.87
2023-05-24T20:28:30.780Z,11.84
2023-05-24T20:30:58.347Z,11.79
2023-05-24T20:33:24.984Z,11.73
2023-05-24T20:35:53.135Z,11.70
2023-05-24T20:38:19.896Z,11.63
2023-05-24T20:40:46.551Z,11.56
2023-05-24T20:43:13.115Z,11.47
2023-05-24T20:45:39.742Z,11.42
2023-05-24T20:48:06.665Z,11.39
2023-05-24T20:50:33.367Z,11.34
2023-05-24T20:52:59.960Z,11.32
2023-05-24T20:55:27.080Z,11.30
2023-05-24T20:57:54.034Z,11.29
2023-05-24T21:00:20.637Z,11.21
2023-05-24T21:02:47.384Z,11.22
2023-05-24T21:05:14.296Z,11.22
2023-05-24T21:07:41.155Z,11.23
2023-05-24T21:10:08.558Z,11.21
2023-05-24T21:12:35.133Z,11.22
2023-05-24T21:15:01.652Z,11.22
2023-05-24T21:17:28.259Z,11.25
2023-05-24T21:19:54.883Z,11.28
2023-05-24T21:22:21.456Z,11.27
2023-05-24T21:24:48.006Z,11.32
2023-05-24T21:27:14.672Z,11.32
2023-05-24T21:29:41.836Z,11.32
2023-05-24T21:32:08.433Z,11.28
2023-05-24T21:34:36.472Z,11.24
2023-05-24T21:37:04.977Z,11.21
2023-05-24T21:39:32.286Z,11.16
2023-05-24T21:41:58.793Z,11.13
2023-05-24T21:44:25.322Z,11.03
2023-05-24T21:46:51.913Z,11.04
2023-05-24T21:49:19.027Z,10.99
2023-05-24T21:51:45.631Z,10.95
2023-05-24T21:54:12.248Z,10.91
2023-05-24T21:56:38.839Z,10.85
2023-05-24T21:59:05.524Z,10.81
2023-05-24T22:01:32.139Z,10.76
2023-05-24T22:03:59.326Z,10.72
2023-05-24T22:06:26.138Z,10.66
2023-05-24T22:08:52.660Z,10.60
2023-05-24T22:11:19.328Z,10.50
2023-05-24T22:13:46.343Z,10.44
2023-05-24T22:16:12.922Z,10.39
2023-05-24T22:18:39.497Z,10.35
2023-05-24T22:21:06.082Z,10.29
2023-05-24T22:23:33.356Z,10.27
2023-05-24T22:26:00.020Z,10.23
2023-05-24T22:28:26.596Z,10.23
2023-05-24T22:30:53.134Z,10.19
2023-05-24T22:33:19.997Z,10.15
2023-05-24T22:35:46.689Z,10.12
2023-05-24T22:38:13.269Z,10.07
2023-05-24T22:40:42.094Z,10.12
2023-05-24T22:43:08.706Z,10.14
2023-05-24T22:45:35.388Z,10.12
2023-05-24T22:48:03.281Z,10.10
2023-05-24T22:50:29.961Z,10.07
2023-05-24T22:52:56.725Z,10.05
2023-05-24T22:55:23.874Z,10.02
2023-05-24T22:57:50.786Z,9.99
2023-05-24T23:00:17.787Z,9.92
2023-05-24T23:02:44.445Z,9.88
2023-05-24T23:05:11.610Z,9.83
2023-05-24T23:07:39.771Z,9.78
2023-05-24T23:10:07.989Z,9.70
2023-05-24T23:12:35.759Z,9.73
2023-05-24T23:15:02.291Z,9.69
2023-05-24T23:17:28.802Z,9.67
2023-05-24T23:19:55.410Z,9.65
2023-05-24T23:22:23.882Z,9.61
2023-05-24T23:24:50.647Z,9.61
2023-05-24T23:27:17.280Z,9.59
2023-05-24T23:29:43.871Z,9.65
2023-05-24T23:32:10.576Z,9.64
2023-05-24T23:34:37.779Z,9.64
2023-05-24T23:37:04.734Z,9.67
2023-05-24T23:39:31.493Z,9.65
2023-05-24T23:41:58.071Z,9.74
2023-05-24T23:44:25.620Z,9.76
2023-05-24T23:46:52.760Z,9.76
2023-05-24T23:49:20.050Z,9.78
2023-05-24T23:51:46.686Z,9.80
2023-05-24T23:54:14.726Z,9.82
2023-05-24T23:56:42.805Z,9.80
2023-05-24T23:59:09.518Z,9.79
